Time;durP1;ratioP1;P1;durP2;ratioP2;P2;SDS_P1;SDS_P2;PMS_P1;PMS_P2;Temp;Humidity;BMP_temperature;BMP_pressure;BME280_temperature;BME280_humidity;BME280_pressure;Samples;Min_cycle;Max_cycle;Signal;HPM_P1;HPM_P2
2022/01/24 00:00:22;;;;;;;;;;;;;;;28.52;57.04;100985.94;5073803;27;70195;-33
2022/01/24 00:02:53;;;;;;;4.93;4.35;;;;;;;28.76;55.90;100990.00;5070407;27;66685;-32
2022/01/24 00:05:24;;;;;;;7.00;4.63;;;;;;;28.77;56.31;100990.81;5076369;27;70179;-32
2022/01/24 00:07:54;;;;;;;7.07;4.38;;;;;;;28.83;55.90;100993.53;5074576;27;66426;-33
2022/01/24 00:10:26;;;;;;;6.97;4.72;;;;;;;28.74;56.45;100973.16;5074123;27;69521;-35
2022/01/24 00:27:02;;;;;;;27.95;11.35;;;;;;;29.00;61.96;101003.94;5061653;28;69523;-34
2022/01/24 00:29:32;;;;;;;26.75;11.68;;;;;;;29.04;62.16;101010.66;5072634;28;66314;-34
2022/01/24 00:32:03;;;;;;;17.00;11.40;;;;;;;29.05;62.60;101006.91;5078644;27;69465;-34
2022/01/24 00:34:33;;;;;;;25.40;12.55;;;;;;;29.06;63.98;101014.81;5081745;27;66602;-33
2022/01/24 00:37:04;;;;;;;26.30;11.88;;;;;;;29.11;63.68;101022.28;5073807;28;69986;-34
2022/01/24 00:39:34;;;;;;;29.15;11.35;;;;;;;29.10;64.22;101024.16;5075487;27;66975;-34
2022/01/24 00:42:23;;;;;;;20.33;10.88;;;;;;;29.15;63.97;101029.78;5070929;27;69824;-34
2022/01/24 00:47:29;;;;;;;20.00;11.02;;;;;;;29.24;64.45;101033.13;5074074;28;70277;-35
2022/01/24 00:55:31;;;;;;;19.40;9.20;;;;;;;29.29;64.27;101054.94;5078702;27;67474;-35
2022/01/24 00:58:01;;;;;;;15.23;7.70;;;;;;;29.32;64.40;101054.53;5056696;28;70298;-34
2022/01/24 01:00:31;;;;;;;12.48;8.80;;;;;;;29.32;64.23;101056.41;5079668;27;66675;-35
2022/01/24 01:03:02;;;;;;;11.10;7.63;;;;;;;29.39;63.86;101063.50;5076910;27;70800;-34
2022/01/24 01:05:55;;;;;;;8.57;7.60;;;;;;;29.42;63.48;101056.00;5078065;27;66112;-34
2022/01/24 01:19:23;;;;;;;8.85;7.95;;;;;;;29.58;62.15;101078.03;5077407;28;70082;-34
2022/01/24 01:21:54;;;;;;;8.45;7.80;;;;;;;29.58;62.31;101075.34;5079758;27;66589;-34
2022/01/24 01:24:26;;;;;;;23.17;14.40;;;;;;;29.64;62.08;101078.28;5078814;27;70160;-34
2022/01/24 01:27:06;;;;;;;11.20;10.27;;;;;;;29.65;61.67;101088.91;5080114;27;65523;-34
2022/01/24 01:56:54;;;;;;;8.98;8.40;;;;;;;29.79;61.35;101098.69;5077865;27;70054;-35
2022/01/24 01:59:25;;;;;;;9.55;8.75;;;;;;;29.84;61.32;101115.13;5076597;27;65466;-34
2022/01/24 02:01:55;;;;;;;9.52;8.75;;;;;;;29.84;61.32;101098.06;5077296;28;70115;-34
2022/01/24 02:04:26;;;;;;;8.75;7.95;;;;;;;29.89;60.73;101100.13;5078525;27;66523;-34
2022/01/24 02:06:57;;;;;;;9.07;8.38;;;;;;;29.90;60.83;101102.66;5076814;27;70371;-35
2022/01/24 02:09:33;;;;;;;8.40;7.80;;;;;;;29.89;60.77;101097.44;5077174;28;65314;-35
2022/01/24 02:12:04;;;;;;;8.50;7.80;;;;;;;29.96;60.35;101100.97;5078918;27;72031;-34
2022/01/24 02:14:39;;;;;;;8.73;8.07;;;;;;;29.98;60.57;101104.31;5076778;27;65992;-34
2022/01/24 02:17:15;;;;;;;10.02;9.18;;;;;;;29.97;59.91;101098.03;5079371;27;70387;-34
2022/01/24 02:20:05;;;;;;;10.73;9.68;;;;;;;30.02;60.36;101089.31;5076896;27;66485;-34
2022/01/24 02:22:46;;;;;;;10.45;7.95;;;;;;;30.09;60.20;101095.56;5080115;27;70058;-35
2022/01/24 02:25:26;;;;;;;7.88;7.28;;;;;;;30.10;59.47;101097.22;5076565;27;66690;-35
2022/01/24 02:28:00;;;;;;;8.75;8.05;;;;;;;30.11;59.36;101095.34;5070524;27;69996;-35
2022/01/24 02:33:11;;;;;;;7.95;7.32;;;;;;;30.14;59.79;101087.63;5075672;27;69821;-34
2022/01/24 02:35:42;;;;;;;9.95;9.00;;;;;;;30.10;59.31;101066.63;5073254;27;66161;-35
2022/01/24 02:38:36;;;;;;;10.40;9.43;;;;;;;30.21;59.11;101088.47;5075015;27;70004;-34
2022/01/24 02:49:35;;;;;;;8.07;7.47;;;;;;;30.30;59.15;101080.16;5078370;27;69578;-35
2022/01/24 02:52:07;;;;;;;8.57;7.88;;;;;;;30.31;58.97;101082.63;5076425;27;66355;-33
2022/01/24 02:54:39;;;;;;;8.45;7.70;;;;;;;30.35;58.33;101083.06;5073891;27;70419;-34
2022/01/24 02:57:12;;;;;;;9.23;7.47;;;;;;;30.34;58.50;101076.81;5077359;27;66675;-34
2022/01/24 02:59:42;;;;;;;9.00;8.10;;;;;;;30.36;58.26;101072.00;5078450;28;70117;-35
2022/01/24 03:02:13;;;;;;;27.55;16.30;;;;;;;30.40;58.78;101075.13;5074180;27;65708;-36
2022/01/24 03:04:43;;;;;;;11.55;10.43;;;;;;;30.40;58.55;101069.72;5076845;27;69765;-35
2022/01/24 03:07:14;;;;;;;11.00;9.85;;;;;;;30.44;58.19;101066.34;5077405;27;65605;-34
2022/01/24 03:09:45;;;;;;;10.70;9.38;;;;;;;30.46;57.94;101064.28;5075839;27;69308;-34
2022/01/24 03:12:27;;;;;;;9.50;8.70;;;;;;;30.46;58.29;101063.44;5075983;27;66277;-36
2022/01/24 03:14:57;;;;;;;9.98;8.77;;;;;;;30.45;58.12;101056.34;5075140;27;70034;-35
2022/01/24 03:17:27;;;;;;;11.98;10.90;;;;;;;30.54;57.78;101063.22;5076455;27;66165;-35
2022/01/24 03:19:57;;;;;;;17.58;9.73;;;;;;;30.57;57.52;101072.78;5073362;28;69566;-35
2022/01/24 03:22:28;;;;;;;11.75;10.02;;;;;;;30.57;57.47;101060.09;5077618;27;65998;-35
2022/01/24 03:24:58;;;;;;;10.95;9.50;;;;;;;30.61;57.32;101068.59;5078374;27;70270;-35
2022/01/24 03:27:28;;;;;;;10.75;9.70;;;;;;;30.63;57.28;101064.63;5069804;28;65658;-35
2022/01/24 03:29:58;;;;;;;15.13;9.48;;;;;;;30.66;57.20;101064.19;5080947;27;70097;-36
2022/01/24 03:32:29;;;;;;;12.77;9.82;;;;;;;30.65;57.64;101056.31;5079847;27;65843;-35
2022/01/24 03:34:59;;;;;;;11.05;10.13;;;;;;;30.71;56.99;101050.84;5059276;27;69104;-35
2022/01/24 03:37:29;;;;;;;14.13;12.02;;;;;;;30.74;57.60;101038.75;5080823;27;65664;-35
2022/01/24 03:40:00;;;;;;;11.10;9.88;;;;;;;30.75;57.21;101039.59;5080348;27;69803;-34
2022/01/24 03:42:30;;;;;;;11.57;10.45;;;;;;;30.80;57.31;101045.22;5079740;27;65424;-36
2022/01/24 03:45:04;;;;;;;11.20;10.20;;;;;;;30.82;56.67;101038.56;5081235;27;70057;-34
2022/01/24 03:50:17;;;;;;;16.23;13.98;;;;;;;30.87;56.84;101033.31;5081492;27;70056;-35
2022/01/24 03:52:47;;;;;;;12.20;10.95;;;;;;;30.91;57.05;101037.25;5061498;28;64633;-35
2022/01/24 03:55:17;;;;;;;11.45;10.27;;;;;;;30.93;56.94;101026.19;5079518;27;70432;-35
2022/01/24 03:57:48;;;;;;;27.15;16.00;;;;;;;30.96;57.02;101019.53;5078712;27;66698;-34
2022/01/24 04:00:19;;;;;;;11.77;10.60;;;;;;;30.91;56.60;101009.34;5076570;27;70278;-35
2022/01/24 04:02:49;;;;;;;12.88;11.75;;;;;;;30.99;56.53;101014.50;5070549;27;66461;-36
2022/01/24 04:05:20;;;;;;;12.20;11.23;;;;;;;30.99;56.34;101003.66;5080883;27;69374;-35
2022/01/24 04:07:50;;;;;;;16.13;10.93;;;;;;;31.02;56.60;100996.97;5082725;27;65704;-35
2022/01/24 04:10:21;;;;;;;11.63;10.60;;;;;;;31.04;55.93;101005.72;5082841;27;70455;-34
2022/01/24 04:12:52;;;;;;;11.85;10.70;;;;;;;31.05;56.64;100997.34;5082656;27;66254;-35
2022/01/24 04:15:45;;;;;;;11.43;10.40;;;;;;;31.08;55.74;100999.63;5081055;27;70168;-35
2022/01/24 04:18:38;;;;;;;11.82;10.95;;;;;;;31.11;55.76;100991.06;5065068;27;66586;-35
2022/01/24 04:24:01;;;;;;;11.70;10.55;;;;;;;31.15;56.15;100978.75;5076934;27;65407;-35
2022/01/24 04:26:32;;;;;;;11.82;10.82;;;;;;;31.19;55.89;100981.00;5085794;27;70084;-35
2022/01/24 04:29:05;;;;;;;12.50;11.27;;;;;;;31.06;55.80;100952.94;5082356;27;66070;-35
2022/01/24 04:31:35;;;;;;;12.90;11.57;;;;;;;31.21;55.85;100968.09;5078889;27;70602;-34
2022/01/24 04:34:06;;;;;;;12.88;11.55;;;;;;;31.24;55.88;100957.63;5082487;27;65021;-34
2022/01/24 04:36:36;;;;;;;12.98;11.32;;;;;;;31.27;55.62;100950.94;5086045;27;70214;-34
2022/01/24 04:39:06;;;;;;;12.75;11.40;;;;;;;31.28;55.37;100947.16;5077516;27;65777;-35
2022/01/24 04:41:40;;;;;;;12.68;11.32;;;;;;;31.25;55.16;100943.00;5082566;27;70127;-35
2022/01/24 04:52:59;;;;;;;11.90;10.68;;;;;;;31.39;55.52;100930.19;5074755;27;69681;-35
2022/01/24 04:55:29;;;;;;;11.73;10.65;;;;;;;31.41;55.57;100924.56;5073878;28;65387;-34
2022/01/24 04:58:00;;;;;;;11.00;10.07;;;;;;;31.43;55.24;100922.47;5072753;27;69795;-34
2022/01/24 05:00:31;;;;;;;12.23;11.07;;;;;;;31.40;55.05;100910.19;5078914;27;65846;-35
2022/01/24 05:03:01;;;;;;;11.98;11.07;;;;;;;31.44;55.45;100919.53;5058646;28;68948;-35
2022/01/24 05:05:32;;;;;;;11.95;11.13;;;;;;;31.47;54.89;100912.81;5080073;27;65225;-35
2022/01/24 05:08:05;;;;;;;14.18;11.50;;;;;;;31.48;55.08;100909.91;5079711;27;69911;-34
2022/01/24 05:10:51;;;;;;;15.68;11.18;;;;;;;31.49;55.08;100906.13;5076101;27;66109;-34
2022/01/24 05:24:45;;;;;;;12.50;11.43;;;;;;;31.33;55.25;100853.28;5047792;28;70263;-35
2022/01/24 05:27:16;;;;;;;12.88;11.63;;;;;;;31.56;55.08;100890.59;5075807;28;66744;-34
2022/01/24 05:29:46;;;;;;;20.17;18.17;;;;;;;31.55;55.16;100880.81;5079288;27;70590;-35
2022/01/24 05:32:16;;;;;;;12.70;11.55;;;;;;;31.57;55.29;100870.59;5073858;28;65365;-35
2022/01/24 05:34:46;;;;;;;14.63;11.90;;;;;;;31.57;54.61;100862.47;5037947;27;68500;-34
2022/01/24 05:37:16;;;;;;;13.38;12.27;;;;;;;31.55;55.12;100856.44;5080297;27;65573;-35
2022/01/24 05:39:47;;;;;;;13.48;12.27;;;;;;;31.57;55.00;100851.63;5077444;27;69494;-35
2022/01/24 05:42:21;;;;;;;14.00;12.68;;;;;;;31.57;54.71;100848.91;5077222;28;67444;-34
2022/01/24 05:44:52;;;;;;;13.45;12.15;;;;;;;31.63;54.86;100847.16;5076078;27;70142;-35
2022/01/24 05:47:23;;;;;;;14.32;13.13;;;;;;;31.64;54.84;100837.16;5077794;27;66032;-35
2022/01/24 05:49:53;;;;;;;15.52;12.35;;;;;;;31.68;54.85;100828.34;5079384;27;70282;-35
2022/01/24 05:52:23;;;;;;;14.25;12.88;;;;;;;31.67;54.36;100820.41;5076385;27;65865;-34
2022/01/24 05:54:58;;;;;;;14.43;13.27;;;;;;;31.73;54.76;100823.06;5074857;27;70410;-34
2022/01/24 05:57:28;;;;;;;14.57;13.18;;;;;;;31.73;54.66;100814.94;5075734;27;65957;-34
2022/01/24 05:59:58;;;;;;;15.68;14.23;;;;;;;31.77;54.49;100809.88;5078860;27;70393;-35
2022/01/24 06:02:29;;;;;;;13.88;12.52;;;;;;;31.77;54.67;100807.16;5076336;27;65475;-35
2022/01/24 06:04:59;;;;;;;14.63;13.43;;;;;;;31.77;54.66;100797.13;5077685;27;69389;-34
2022/01/24 06:07:29;;;;;;;15.10;13.60;;;;;;;31.75;54.50;100790.28;5078929;27;65658;-36
2022/01/24 06:09:59;;;;;;;14.70;13.27;;;;;;;31.79;54.86;100799.63;5077929;27;70575;-35
2022/01/24 06:12:30;;;;;;;15.75;13.63;;;;;;;31.79;54.50;100786.88;5077719;27;65384;-35
2022/01/24 06:15:01;;;;;;;13.88;12.73;;;;;;;31.80;54.38;100782.28;5077478;27;69966;-35
2022/01/24 06:17:31;;;;;;;16.00;13.98;;;;;;;31.76;54.71;100779.22;5077127;27;65294;-35
2022/01/24 06:20:02;;;;;;;14.38;13.18;;;;;;;31.84;54.41;100786.19;5078155;27;70793;-35
2022/01/24 06:22:32;;;;;;;15.18;13.77;;;;;;;31.85;54.35;100774.28;5078392;27;66146;-36
2022/01/24 06:25:03;;;;;;;14.85;13.52;;;;;;;31.86;54.52;100773.22;5074823;27;69564;-35
2022/01/24 06:27:44;;;;;;;14.35;13.10;;;;;;;31.83;54.30;100758.25;5075146;27;66482;-35
2022/01/24 06:30:14;;;;;;;14.73;13.50;;;;;;;31.88;54.57;100759.44;5074188;27;69890;-35
2022/01/24 06:32:45;;;;;;;15.65;14.20;;;;;;;31.89;54.47;100755.66;5077619;27;65560;-34
2022/01/24 06:35:16;;;;;;;16.15;14.18;;;;;;;31.93;54.24;100743.31;5078408;27;69568;-35
2022/01/24 06:37:46;;;;;;;14.93;13.80;;;;;;;31.93;54.18;100736.03;5076682;27;66354;-35
2022/01/24 06:40:16;;;;;;;14.90;13.20;;;;;;;31.91;54.09;100724.56;5076519;27;69318;-35
2022/01/24 06:42:47;;;;;;;15.63;14.07;;;;;;;31.91;54.11;100719.16;5078942;27;66677;-35
2022/01/24 06:45:17;;;;;;;14.60;13.38;;;;;;;31.93;54.22;100717.03;5076803;27;69536;-35
2022/01/24 06:47:47;;;;;;;15.40;13.75;;;;;;;31.94;54.60;100718.69;5055632;28;65197;-35
2022/01/24 06:50:18;;;;;;;14.90;13.60;;;;;;;31.95;54.27;100720.31;5077403;27;69399;-35
2022/01/24 06:52:48;;;;;;;14.95;13.48;;;;;;;31.96;54.23;100713.84;5069910;27;66185;-35
2022/01/24 06:55:18;;;;;;;14.73;13.63;;;;;;;31.98;54.64;100716.31;5078640;27;70012;-36
2022/01/24 06:57:50;;;;;;;15.57;14.20;;;;;;;31.99;54.39;100709.84;5074588;28;66408;-35
2022/01/24 07:00:26;;;;;;;16.63;15.05;;;;;;;31.99;54.42;100710.69;5080285;27;69673;-36
2022/01/24 07:02:57;;;;;;;16.45;14.82;;;;;;;32.00;54.36;100693.34;5080172;27;65794;-35
2022/01/24 07:05:29;;;;;;;16.63;15.15;;;;;;;31.96;53.95;100672.34;5079301;27;69921;-37
2022/01/24 07:08:00;;;;;;;16.42;15.00;;;;;;;32.04;54.26;100683.69;5060847;28;67185;-35
2022/01/24 07:10:30;;;;;;;16.92;15.48;;;;;;;32.07;54.18;100689.69;5080595;27;69685;-36
2022/01/24 07:13:00;;;;;;;15.85;14.65;;;;;;;32.10;54.16;100689.25;5078819;27;66685;-37
2022/01/24 07:15:35;;;;;;;16.63;15.27;;;;;;;32.09;54.16;100682.16;5079995;27;70405;-36
2022/01/24 07:20:36;;;;;;;15.18;13.98;;;;;;;32.12;53.98;100677.06;5080517;27;70421;-36
2022/01/24 07:23:06;;;;;;;15.50;14.20;;;;;;;32.14;54.32;100674.13;5081512;27;66281;-36
2022/01/24 07:25:37;;;;;;;15.18;14.00;;;;;;;32.15;54.06;100679.34;5073568;27;68897;-35
2022/01/24 07:28:07;;;;;;;16.55;15.00;;;;;;;32.16;54.12;100677.44;5078594;27;66413;-35
2022/01/24 07:30:37;;;;;;;16.58;15.25;;;;;;;32.16;54.12;100672.03;5081272;27;70443;-36
2022/01/24 07:33:08;;;;;;;15.68;14.25;;;;;;;32.16;54.32;100672.03;5081133;27;66471;-35
2022/01/24 07:35:38;;;;;;;16.33;14.95;;;;;;;32.15;53.89;100670.34;5075595;27;69207;-36
2022/01/24 07:38:09;;;;;;;16.10;14.48;;;;;;;32.18;54.13;100668.00;5081183;27;66923;-36
2022/01/24 07:40:42;;;;;;;17.08;15.57;;;;;;;32.19;54.46;100664.22;5079386;27;70154;-36
2022/01/24 07:43:13;;;;;;;16.80;15.35;;;;;;;32.22;53.85;100665.66;5079553;27;65557;-38
2022/01/24 07:45:47;;;;;;;15.60;14.23;;;;;;;32.08;54.07;100631.66;5075486;27;69643;-35
2022/01/24 07:48:19;;;;;;;17.55;16.05;;;;;;;32.27;54.17;100663.88;5081190;27;66370;-35
2022/01/24 07:50:52;;;;;;;16.20;14.80;;;;;;;32.32;53.87;100660.47;5083847;27;69295;-35
2022/01/24 07:53:24;;;;;;;17.08;15.52;;;;;;;32.33;54.02;100661.28;5082278;27;65725;-35
2022/01/24 07:56:14;;;;;;;16.77;15.45;;;;;;;32.34;54.21;100655.63;5083891;27;70277;-35
2022/01/24 07:58:45;;;;;;;18.77;17.00;;;;;;;32.32;53.89;100649.63;5080729;27;66584;-34
2022/01/24 08:01:16;;;;;;;16.38;15.02;;;;;;;32.37;53.86;100651.59;5086390;27;69143;-35
2022/01/24 08:03:47;;;;;;;17.15;15.73;;;;;;;32.37;53.96;100647.00;5075885;27;65786;-36
2022/01/24 08:06:18;;;;;;;17.67;16.03;;;;;;;32.42;53.73;100638.97;5081353;27;70101;-35
2022/01/24 08:08:49;;;;;;;17.85;16.17;;;;;;;32.44;53.66;100647.72;5080572;27;65445;-35
2022/01/24 08:11:19;;;;;;;20.45;16.42;;;;;;;32.46;53.69;100644.81;5078539;27;70538;-35
2022/01/24 08:13:52;;;;;;;18.80;16.95;;;;;;;32.43;53.71;100635.22;5081884;27;65601;-37
2022/01/24 08:16:23;;;;;;;18.15;16.52;;;;;;;32.43;53.77;100637.94;5088218;27;70031;-35
2022/01/24 08:18:55;;;;;;;19.10;17.37;;;;;;;32.49;53.44;100631.56;5077367;27;66370;-35
2022/01/24 08:21:26;;;;;;;19.10;17.40;;;;;;;32.53;53.72;100639.25;5086290;27;69462;-34
2022/01/24 08:23:56;;;;;;;18.88;16.90;;;;;;;32.53;53.46;100629.19;5079786;27;65736;-36
2022/01/24 08:26:26;;;;;;;18.20;16.55;;;;;;;32.57;53.72;100629.53;5079051;27;69845;-35
2022/01/24 08:28:57;;;;;;;20.05;17.48;;;;;;;32.55;53.61;100634.41;5081200;27;67077;-35
2022/01/24 08:31:27;;;;;;;18.92;17.02;;;;;;;32.57;53.89;100629.53;5081650;27;70100;-35
2022/01/24 08:33:58;;;;;;;19.83;16.48;;;;;;;32.56;53.53;100619.75;5081199;27;66203;-35
2022/01/24 08:36:28;;;;;;;18.85;17.15;;;;;;;32.59;53.57;100619.28;5086519;27;69802;-35
2022/01/24 08:39:06;;;;;;;18.50;16.83;;;;;;;32.61;53.64;100614.44;5086342;27;65465;-35
2022/01/24 08:42:09;;;;;;;20.77;17.05;;;;;;;32.58;53.53;100614.94;5080703;27;69298;-34
2022/01/24 08:47:17;;;;;;;29.42;18.58;;;;;;;32.59;53.62;100613.84;5077828;27;70273;-35
2022/01/24 08:50:07;;;;;;;19.75;17.65;;;;;;;32.61;53.39;100620.69;5080179;27;66268;-36
2022/01/24 08:52:37;;;;;;;20.27;18.33;;;;;;;32.64;53.54;100620.22;5074688;27;69273;-36
2022/01/24 08:55:15;;;;;;;19.25;17.27;;;;;;;32.64;53.55;100625.66;5078740;27;65493;-36
2022/01/24 08:57:45;;;;;;;22.77;18.67;;;;;;;32.64;53.54;100630.25;5078137;27;69493;-35
2022/01/24 09:00:15;;;;;;;19.00;17.17;;;;;;;32.64;53.72;100620.22;5077619;27;65430;-38
2022/01/24 09:02:46;;;;;;;19.73;17.55;;;;;;;32.67;53.57;100629.78;5072903;27;68992;-37
2022/01/24 09:05:18;;;;;;;20.13;18.13;;;;;;;32.66;53.47;100628.13;5076331;27;65199;-36
2022/01/24 09:07:49;;;;;;;19.75;17.75;;;;;;;32.66;53.60;100631.66;5080876;27;69921;-36
2022/01/24 09:10:20;;;;;;;21.33;18.23;;;;;;;32.67;53.60;100635.22;5080352;27;66176;-36
2022/01/24 09:12:50;;;;;;;20.83;18.80;;;;;;;32.70;53.38;100629.31;5077207;27;70083;-35
2022/01/24 09:15:20;;;;;;;20.52;18.30;;;;;;;32.70;53.59;100632.84;5079789;27;66608;-35
2022/01/24 09:17:51;;;;;;;22.00;18.52;;;;;;;32.71;53.41;100634.50;5077274;27;69304;-35
2022/01/24 09:20:21;;;;;;;25.30;19.67;;;;;;;32.70;53.41;100630.13;5078890;27;66472;-34
2022/01/24 09:22:52;;;;;;;21.13;18.75;;;;;;;32.75;53.54;100643.00;5077746;27;70472;-35
2022/01/24 09:25:23;;;;;;;21.20;18.88;;;;;;;32.74;53.55;100641.34;5081043;27;66404;-35
2022/01/24 09:27:53;;;;;;;20.25;18.33;;;;;;;32.75;53.80;100643.00;5080890;27;70861;-35
2022/01/24 09:30:24;;;;;;;20.33;18.50;;;;;;;32.75;53.35;100632.13;5080866;27;66144;-35
2022/01/24 09:32:54;;;;;;;21.98;19.40;;;;;;;32.73;53.50;100647.81;5083890;27;69850;-35
2022/01/24 09:35:28;;;;;;;21.98;19.13;;;;;;;32.77;53.78;100640.06;5078109;27;65701;-37
2022/01/24 09:37:58;;;;;;;20.48;18.42;;;;;;;32.76;53.37;100636.47;5080186;27;69178;-35
2022/01/24 09:40:28;;;;;;;20.85;18.70;;;;;;;32.73;53.62;100636.97;5078181;27;65223;-36
2022/01/24 09:42:59;;;;;;;20.55;18.58;;;;;;;32.75;53.59;100643.00;5046464;27;69138;-33
2022/01/24 09:45:29;;;;;;;21.35;19.17;;;;;;;32.74;53.37;100640.53;5080737;27;66658;-37
2022/01/24 09:48:01;;;;;;;21.48;19.30;;;;;;;32.77;53.55;100649.03;5081066;27;69716;-34
2022/01/24 09:50:32;;;;;;;22.02;18.70;;;;;;;32.74;53.48;100652.22;5071674;27;66743;-36
2022/01/24 09:53:03;;;;;;;22.00;19.52;;;;;;;32.75;53.73;100653.03;5059580;28;70421;-35
2022/01/24 09:55:33;;;;;;;22.02;18.98;;;;;;;32.75;53.73;100653.03;5075293;27;65768;-35
2022/01/24 09:58:03;;;;;;;22.67;19.55;;;;;;;32.74;53.83;100663.09;5077967;27;69813;-35
2022/01/24 10:00:33;;;;;;;20.92;18.52;;;;;;;32.74;53.83;100657.66;5078953;27;66149;-35
2022/01/24 10:03:12;;;;;;;22.00;19.75;;;;;;;32.75;53.47;100661.19;5078157;27;70097;-36
2022/01/24 10:06:03;;;;;;;21.45;19.38;;;;;;;32.72;53.54;100655.16;5068965;27;64956;-36
2022/01/24 10:08:35;;;;;;;27.63;19.52;;;;;;;32.73;53.76;100661.41;5077048;27;70237;-35
2022/01/24 10:11:07;;;;;;;;;;;;;;;32.52;54.34;100660.16;5078990;27;66080;-34
2022/01/24 10:16:44;;;;;;;20.70;18.77;;;;;;;32.72;53.96;100671.44;5077191;27;66022;-35
2022/01/24 10:19:20;;;;;;;22.95;20.13;;;;;;;32.57;53.63;100640.41;5077763;27;69201;-36
2022/01/24 10:22:05;;;;;;;20.80;18.67;;;;;;;32.68;53.60;100670.28;5080317;27;66451;-36
2022/01/24 10:24:40;;;;;;;21.67;19.58;;;;;;;32.63;53.73;100663.91;5078794;27;70667;-34
2022/01/24 10:27:17;;;;;;;24.75;19.23;;;;;;;32.71;53.53;100677.13;5076751;27;66775;-34
2022/01/24 10:29:48;;;;;;;21.35;19.10;;;;;;;32.71;53.59;100685.28;5080158;27;70043;-35
2022/01/24 10:32:31;;;;;;;24.98;19.73;;;;;;;32.69;53.60;100684.69;5079111;27;66855;-35
2022/01/24 10:35:46;;;;;;;22.13;19.65;;;;;;;32.58;54.07;100685.53;5079872;27;70021;-34
2022/01/24 10:38:54;;;;;;;26.08;18.90;;;;;;;32.67;53.93;100684.91;5015772;28;66458;-34
2022/01/24 10:41:22;;;;;;;25.67;20.05;;;;;;;32.67;53.96;100689.53;5011648;28;69171;-36
2022/01/24 10:43:56;;;;;;;21.33;19.13;;;;;;;32.67;53.99;100689.53;5067179;27;65685;-35
2022/01/24 10:46:46;;;;;;;22.25;19.95;;;;;;;32.62;54.27;100697.56;5078777;27;69725;-35
2022/01/24 10:49:16;;;;;;;22.88;20.48;;;;;;;32.63;53.64;100693.78;5077532;27;66048;-35
2022/01/24 10:51:47;;;;;;;27.25;20.48;;;;;;;32.64;53.97;100700.88;5078571;27;70352;-35
2022/01/24 10:54:28;;;;;;;24.80;21.27;;;;;;;32.62;53.81;100695.66;5077250;28;65301;-35
2022/01/24 10:56:58;;;;;;;27.05;20.98;;;;;;;32.63;54.61;100699.22;5077548;27;69664;-35
2022/01/24 10:59:29;;;;;;;30.27;20.58;;;;;;;32.62;55.44;100703.81;5091239;27;66590;-37
2022/01/24 11:02:04;;;;;;;26.60;20.58;;;;;;;32.43;56.42;100678.66;5058923;28;69948;-35
2022/01/24 11:04:34;;;;;;;22.10;19.08;;;;;;;32.62;56.12;100722.81;5070117;27;66394;-37
2022/01/24 11:07:06;;;;;;;21.80;18.42;;;;;;;32.62;56.65;100724.72;5059233;28;70111;-36
2022/01/24 11:09:42;;;;;;;20.90;18.67;;;;;;;32.59;56.35;100717.84;5075218;27;65900;-35
2022/01/24 11:12:13;;;;;;;27.58;18.77;;;;;;;32.53;56.72;100712.56;5075601;27;69760;-35
2022/01/24 11:14:45;;;;;;;29.35;18.08;;;;;;;32.60;56.50;100726.84;5076013;27;66602;-35
2022/01/24 11:17:23;;;;;;;21.23;17.00;;;;;;;32.61;57.83;100734.75;5077268;27;71393;-35
2022/01/24 11:20:00;;;;;;;21.35;17.25;;;;;;;32.56;58.46;100725.66;5058937;27;65238;-36
2022/01/24 11:22:34;;;;;;;18.95;16.95;;;;;;;32.55;58.65;100738.41;5075606;27;70410;-35
2022/01/24 11:25:07;;;;;;;20.17;16.20;;;;;;;32.44;59.52;100734.59;5076106;27;65867;-36
2022/01/24 11:27:42;;;;;;;21.52;16.10;;;;;;;32.03;59.68;100695.56;5076379;27;69569;-36
2022/01/24 11:30:16;;;;;;;24.75;15.85;;;;;;;32.07;60.22;100719.53;5077121;27;65502;-34
2022/01/24 11:32:52;;;;;;;21.52;14.23;;;;;;;32.20;60.55;100749.19;5074382;27;69726;-36
2022/01/24 11:35:33;;;;;;;14.73;13.25;;;;;;;32.12;61.42;100752.22;5075928;27;66382;-36
2022/01/24 11:38:04;;;;;;;15.63;13.23;;;;;;;32.11;61.42;100764.16;5074928;27;69982;-36
2022/01/24 11:40:48;;;;;;;15.38;13.00;;;;;;;32.02;62.73;100769.09;5078251;27;66351;-34
2022/01/24 11:43:35;;;;;;;21.70;12.88;;;;;;;31.75;62.75;100736.03;5074409;27;68672;-36
2022/01/24 11:46:52;;;;;;;19.67;12.30;;;;;;;31.91;63.42;100777.97;5077143;27;65585;-36
2022/01/24 11:49:23;;;;;;;12.52;11.52;;;;;;;31.93;61.95;100771.28;5067542;27;70777;-35
2022/01/24 11:52:06;;;;;;;13.15;11.45;;;;;;;31.86;63.45;100769.69;5059180;27;66229;-36
2022/01/24 11:54:52;;;;;;;12.82;11.63;;;;;;;31.85;63.28;100785.16;5078591;27;70513;-35
2022/01/24 11:57:27;;;;;;;13.13;12.02;;;;;;;31.86;62.49;100791.41;5080001;27;66165;-36
2022/01/24 12:00:04;;;;;;;14.43;13.00;;;;;;;31.79;63.35;100788.78;5079216;27;70185;-36
2022/01/24 12:02:46;;;;;;;16.45;13.90;;;;;;;31.55;63.82;100764.25;5083448;27;65873;-36
2022/01/24 12:05:30;;;;;;;15.80;14.23;;;;;;;31.68;63.67;100784.94;5079360;27;68683;-36
2022/01/24 12:08:06;;;;;;;17.30;15.45;;;;;;;31.57;62.98;100780.28;5080677;27;66557;-35
2022/01/24 12:11:23;;;;;;;19.30;15.60;;;;;;;31.47;64.06;100778.09;5077487;27;69860;-35
2022/01/24 12:14:01;;;;;;;24.50;16.58;;;;;;;31.69;63.13;100807.47;5077322;27;65700;-35
2022/01/24 12:16:37;;;;;;;29.52;16.88;;;;;;;31.66;63.33;100810.63;5082567;27;70252;-35
2022/01/24 12:19:08;;;;;;;16.95;15.15;;;;;;;31.65;62.81;100817.09;5078196;27;66468;-36
2022/01/24 12:21:43;;;;;;;18.25;15.32;;;;;;;31.29;63.22;100764.53;5076247;27;69765;-35
2022/01/24 12:24:14;;;;;;;20.10;15.23;;;;;;;31.61;63.12;100825.69;5078140;27;66502;-35
2022/01/24 12:27:05;;;;;;;19.38;13.93;;;;;;;31.60;64.21;100837.59;5079846;27;69602;-35
2022/01/24 12:29:42;;;;;;;15.73;13.90;;;;;;;31.60;63.99;100839.50;5080001;27;66099;-37
2022/01/24 12:32:24;;;;;;;16.05;13.32;;;;;;;31.58;64.40;100839.69;5079688;27;69486;-36
2022/01/24 12:34:55;;;;;;;13.90;11.88;;;;;;;31.55;63.47;100829.31;5060911;27;65703;-34
2022/01/24 12:37:31;;;;;;;13.30;11.98;;;;;;;31.60;63.81;100843.03;5077384;27;70266;-36
2022/01/24 12:40:07;;;;;;;16.25;11.77;;;;;;;31.60;63.58;100837.59;5078645;27;66070;-36
2022/01/24 12:42:58;;;;;;;15.18;11.10;;;;;;;31.63;63.70;100851.78;5077885;27;69509;-36
2022/01/24 12:48:32;;;;;;;11.75;9.50;;;;;;;31.59;63.68;100857.66;5081159;27;70046;-35
2022/01/24 12:51:04;;;;;;;10.95;9.95;;;;;;;31.45;63.36;100839.84;5074175;28;64725;-36
2022/01/24 12:53:39;;;;;;;13.75;9.50;;;;;;;31.58;63.70;100864.09;5079538;27;68997;-36
2022/01/24 12:56:11;;;;;;;15.77;8.98;;;;;;;31.54;63.35;100865.63;5074996;27;64375;-35
2022/01/24 12:58:44;;;;;;;9.55;8.70;;;;;;;31.50;62.24;100863.56;5060979;27;69956;-35
2022/01/24 13:01:30;;;;;;;15.45;8.90;;;;;;;31.27;59.84;100866.91;5080431;27;66271;-34
2022/01/24 13:04:05;;;;;;;12.43;8.40;;;;;;;31.16;58.63;100874.72;5078776;27;69558;-36
2022/01/24 13:06:40;;;;;;;9.10;7.80;;;;;;;30.70;58.40;100821.75;5080977;27;65506;-35
2022/01/24 13:09:18;;;;;;;15.65;8.23;;;;;;;30.90;57.82;100880.38;5079276;27;69889;-35
2022/01/24 13:11:55;;;;;;;10.68;7.60;;;;;;;30.79;57.48;100887.28;5079317;28;66327;-35
2022/01/24 13:14:39;;;;;;;16.98;8.20;;;;;;;30.53;56.15;100863.94;5081551;27;70071;-35
2022/01/24 13:23:04;;;;;;;17.52;7.38;;;;;;;30.37;56.04;100895.06;5062521;27;64961;-36
2022/01/24 13:25:39;;;;;;;20.73;7.60;;;;;;;30.36;55.67;100895.25;5080049;27;70122;-35
2022/01/24 13:28:12;;;;;;;28.13;7.78;;;;;;;29.94;56.02;100838.00;5080062;27;66112;-35
2022/01/24 13:30:47;;;;;;;19.83;8.00;;;;;;;30.06;55.82;100879.56;5083748;27;70215;-35
2022/01/24 13:33:22;;;;;;;15.38;7.53;;;;;;;30.09;56.21;100889.13;5080417;27;66295;-35
2022/01/24 13:35:55;;;;;;;23.17;7.68;;;;;;;29.96;55.64;100868.38;5077016;27;69716;-35